createdAt,value
2018-04-27T00:08:40.000Z,46.786
2018-04-27T00:18:40.000Z,46.793
2018-04-27T00:28:40.000Z,46.836
2018-04-27T00:38:40.000Z,46.908
2018-04-27T00:48:40.000Z,46.959
2018-04-27T00:58:40.000Z,46.991
2018-04-27T01:08:40.000Z,47
2018-04-27T01:18:40.000Z,47.038
2018-04-27T01:28:40.000Z,47.07
2018-04-27T01:38:40.000Z,47.122
2018-04-27T01:48:40.000Z,47.162
2018-04-27T01:58:40.000Z,47.203
2018-04-27T02:08:41.000Z,47.21
2018-04-27T02:18:41.000Z,47.253
2018-04-27T02:28:41.000Z,47.369
2018-04-27T02:38:41.000Z,47.367
2018-04-27T02:48:41.000Z,47.365
2018-04-27T02:58:41.000Z,47.448
2018-04-27T03:08:41.000Z,47.49
2018-04-27T03:18:41.000Z,47.563
2018-04-27T03:28:41.000Z,47.571
2018-04-27T03:38:41.000Z,47.632
2018-04-27T03:48:41.000Z,47.62
2018-04-27T03:58:41.000Z,47.662
2018-04-27T04:08:41.000Z,47.67
2018-04-27T04:18:41.000Z,47.744
2018-04-27T04:28:41.000Z,47.687
2018-04-27T04:38:41.000Z,47.74
2018-04-27T04:48:41.000Z,47.782
2018-04-27T04:58:41.000Z,47.738
2018-04-27T05:08:41.000Z,47.727
2018-04-27T05:18:41.000Z,47.758
2018-04-27T05:28:41.000Z,47.696
2018-04-27T05:38:41.000Z,47.686
2018-04-27T05:48:41.000Z,47.638
2018-04-27T05:58:41.000Z,47.48
2018-04-27T06:08:41.000Z,47.419
2018-04-27T06:18:41.000Z,47.327
2018-04-27T06:28:41.000Z,47.169
2018-04-27T06:38:41.000Z,47.043
2018-04-27T06:48:41.000Z,46.897
2018-04-27T06:58:41.000Z,46.834
2018-04-27T07:08:41.000Z,46.666
2018-04-27T07:18:41.000Z,46.5
2018-04-27T07:28:44.000Z,46.237
2018-04-27T07:48:41.000Z,45.792
2018-04-27T07:58:44.000Z,45.443
2018-04-27T08:08:41.000Z,45.212
2018-04-27T08:18:41.000Z,44.938
2018-04-27T08:28:41.000Z,44.75
2018-04-27T08:38:41.000Z,44.612
2018-04-27T08:48:41.000Z,44.387
2018-04-27T08:58:41.000Z,44.259
2018-04-27T09:08:41.000Z,44.237
2018-04-27T09:18:41.000Z,44.081
2018-04-27T09:28:41.000Z,43.954
2018-04-27T09:38:41.000Z,43.717
2018-04-27T09:48:41.000Z,43.687
2018-04-27T09:58:41.000Z,43.574
2018-04-27T10:08:41.000Z,43.523
2018-04-27T10:18:41.000Z,43.43
2018-04-27T10:28:42.000Z,43.189
2018-04-27T10:38:41.000Z,43.041
2018-04-27T10:48:42.000Z,42.838
2018-04-27T10:58:46.000Z,42.999
2018-04-27T11:08:42.000Z,42.976
2018-04-27T11:18:42.000Z,42.891
2018-04-27T11:28:43.000Z,42.87
2018-04-27T11:38:42.000Z,42.347
2018-04-27T11:48:42.000Z,41.918
2018-04-27T11:58:42.000Z,41.907
2018-04-27T12:08:42.000Z,41.332
2018-04-27T12:18:42.000Z,41.12
2018-04-27T12:28:42.000Z,41.216
2018-04-27T12:38:43.000Z,41.346
2018-04-27T12:48:42.000Z,41.273
2018-04-27T12:58:42.000Z,41.348
2018-04-27T13:08:42.000Z,41.18
2018-04-27T13:18:42.000Z,41.15
2018-04-27T13:28:42.000Z,41.459
2018-04-27T13:38:42.000Z,41.237
2018-04-27T13:48:42.000Z,41.599
2018-04-27T13:58:42.000Z,41.14
2018-04-27T14:08:42.000Z,41.376
2018-04-27T14:18:42.000Z,41.301
2018-04-27T14:28:42.000Z,41.291
2018-04-27T14:38:42.000Z,41.386
2018-04-27T14:48:46.000Z,41.56
2018-04-27T14:58:42.000Z,41.666
2018-04-27T15:08:42.000Z,41.581
2018-04-27T15:18:42.000Z,41.967
2018-04-27T15:28:42.000Z,42.031
2018-04-27T15:38:42.000Z,42.062
2018-04-27T15:48:42.000Z,42.19
2018-04-27T15:58:42.000Z,42.329
2018-04-27T16:08:42.000Z,42.347
2018-04-27T16:18:42.000Z,42.346
2018-04-27T16:28:42.000Z,42.27
2018-04-27T16:38:42.000Z,42.387
2018-04-27T16:48:42.000Z,42.439
2018-04-27T16:58:42.000Z,42.563
2018-04-27T17:08:42.000Z,43.245
2018-04-27T17:18:42.000Z,43.606
2018-04-27T17:28:42.000Z,43.726
2018-04-27T17:38:42.000Z,43.684
2018-04-27T17:48:42.000Z,44.013
2018-04-27T17:58:42.000Z,44.007
2018-04-27T18:18:42.000Z,44.283
2018-04-27T18:28:42.000Z,44.344
2018-04-27T18:38:42.000Z,44.669
2018-04-27T18:48:42.000Z,44.676
2018-04-27T18:58:43.000Z,44.924
2018-04-27T19:08:43.000Z,44.813
2018-04-27T19:18:43.000Z,44.77
2018-04-27T19:28:44.000Z,44.79
2018-04-27T19:38:43.000Z,45.081
2018-04-27T19:48:43.000Z,45.142
2018-04-27T19:58:43.000Z,45.27
2018-04-27T20:08:43.000Z,45.429
2018-04-27T20:18:43.000Z,45.352
2018-04-27T20:28:43.000Z,45.394
2018-04-27T20:38:43.000Z,45.588
2018-04-27T20:48:43.000Z,45.586
2018-04-27T20:58:43.000Z,45.705
2018-04-27T21:08:43.000Z,45.842
2018-04-27T21:18:43.000Z,45.808
2018-04-27T21:28:45.000Z,45.958
2018-04-27T21:38:43.000Z,45.911
2018-04-27T21:48:43.000Z,45.974
2018-04-27T21:58:43.000Z,45.948
2018-04-27T22:08:43.000Z,45.976
2018-04-27T22:18:44.000Z,45.997
2018-04-27T22:28:43.000Z,45.708
2018-04-27T22:38:43.000Z,45.498
2018-04-27T22:48:43.000Z,45.615
2018-04-27T23:08:43.000Z,45.666
2018-04-27T23:18:43.000Z,45.737
2018-04-27T23:28:43.000Z,45.767
2018-04-27T23:38:43.000Z,45.808
2018-04-27T23:48:43.000Z,45.684
2018-04-27T23:58:43.000Z,45.781
